createdAt,value
2023-02-12T00:00:42.382Z,6.93
2023-02-12T00:03:08.789Z,6.92
2023-02-12T00:05:35.042Z,6.88
2023-02-12T00:08:01.440Z,6.87
2023-02-12T00:10:27.753Z,6.87
2023-02-12T00:12:54.133Z,6.85
2023-02-12T00:15:20.446Z,6.84
2023-02-12T00:17:46.863Z,6.84
2023-02-12T00:20:13.293Z,6.84
2023-02-12T00:22:39.623Z,6.84
2023-02-12T00:25:06.548Z,6.85
2023-02-12T00:27:32.878Z,6.84
2023-02-12T00:29:59.429Z,6.83
2023-02-12T00:32:25.772Z,6.82
2023-02-12T00:34:52.146Z,6.81
2023-02-12T00:37:18.518Z,6.80
2023-02-12T00:39:44.832Z,6.80
2023-02-12T00:42:11.202Z,6.79
2023-02-12T00:44:37.573Z,6.79
2023-02-12T00:47:03.947Z,6.78
2023-02-12T00:49:30.259Z,6.77
2023-02-12T00:51:56.675Z,6.75
2023-02-12T00:54:23.038Z,6.74
2023-02-12T00:56:49.403Z,6.72
2023-02-12T00:59:15.711Z,6.72
2023-02-12T01:01:42.249Z,6.71
2023-02-12T01:04:08.455Z,6.71
2023-02-12T01:06:34.791Z,6.71
2023-02-12T01:09:01.121Z,6.70
2023-02-12T01:11:27.460Z,6.67
2023-02-12T01:13:53.780Z,6.66
2023-02-12T01:16:20.236Z,6.65
2023-02-12T01:18:46.471Z,6.65
2023-02-12T01:21:12.815Z,6.68
2023-02-12T01:23:39.170Z,6.69
2023-02-12T01:26:05.557Z,6.70
2023-02-12T01:28:31.960Z,6.72
2023-02-12T01:30:58.344Z,6.73
2023-02-12T01:33:24.598Z,6.69
2023-02-12T01:35:50.948Z,6.73
2023-02-12T01:38:17.328Z,6.72
2023-02-12T01:40:43.694Z,6.72
2023-02-12T01:43:10.070Z,6.73
2023-02-12T01:45:36.466Z,6.73
2023-02-12T01:48:02.822Z,6.72
2023-02-12T01:50:29.199Z,6.72
2023-02-12T01:52:55.517Z,6.72
2023-02-12T01:55:21.859Z,6.72
2023-02-12T01:57:48.182Z,6.71
2023-02-12T02:00:14.567Z,6.70
2023-02-12T02:02:40.891Z,6.68
2023-02-12T02:05:07.214Z,6.66
2023-02-12T02:07:33.574Z,6.65
2023-02-12T02:09:59.908Z,6.63
2023-02-12T02:12:26.337Z,6.62
2023-02-12T02:14:52.612Z,6.59
2023-02-12T02:17:18.970Z,6.57
2023-02-12T02:19:45.305Z,6.54
2023-02-12T02:22:11.622Z,6.52
2023-02-12T02:24:38.054Z,6.52
2023-02-12T02:27:04.359Z,6.50
2023-02-12T02:29:30.743Z,6.48
2023-02-12T02:31:57.178Z,6.45
2023-02-12T02:34:23.472Z,6.43
2023-02-12T02:37:00.177Z,6.41
2023-02-12T02:39:16.217Z,6.40
2023-02-12T02:41:42.528Z,6.39
2023-02-12T02:44:08.916Z,6.37
2023-02-12T02:46:35.285Z,6.38
2023-02-12T02:49:01.622Z,6.38
2023-02-12T02:51:27.932Z,6.38
2023-02-12T02:53:54.300Z,6.39
2023-02-12T02:56:20.612Z,6.39
2023-02-12T02:58:47.068Z,6.39
2023-02-12T03:01:15.662Z,6.41
2023-02-12T03:03:39.756Z,6.44
2023-02-12T03:06:06.085Z,6.46
2023-02-12T03:08:32.465Z,6.46
2023-02-12T03:10:58.782Z,6.48
2023-02-12T03:13:25.236Z,6.49
2023-02-12T03:15:51.556Z,6.51
2023-02-12T03:18:17.896Z,6.52
2023-02-12T03:20:44.235Z,6.53
2023-02-12T03:23:10.572Z,6.55
2023-02-12T03:25:36.966Z,6.56
2023-02-12T03:28:03.404Z,6.58
2023-02-12T03:30:29.715Z,6.60
2023-02-12T03:32:56.037Z,6.61
2023-02-12T03:35:22.363Z,6.61
2023-02-12T03:37:48.764Z,6.61
2023-02-12T03:40:15.068Z,6.63
2023-02-12T03:42:41.405Z,6.64
2023-02-12T03:45:07.787Z,6.63
2023-02-12T03:47:34.166Z,6.64
2023-02-12T03:50:00.503Z,6.66
2023-02-12T03:52:26.857Z,6.67
2023-02-12T03:54:53.228Z,6.68
2023-02-12T03:57:19.586Z,6.71
2023-02-12T03:59:46.006Z,6.72
2023-02-12T04:02:12.393Z,6.73
2023-02-12T04:04:38.757Z,6.75
2023-02-12T04:07:05.110Z,6.76
2023-02-12T04:09:31.428Z,6.77
2023-02-12T04:11:57.805Z,6.78
2023-02-12T04:14:24.167Z,6.79
2023-02-12T04:16:50.567Z,6.81
2023-02-12T04:19:16.835Z,6.82
2023-02-12T04:21:43.341Z,6.82
2023-02-12T04:24:09.604Z,6.81
2023-02-12T04:26:35.942Z,6.82
2023-02-12T04:29:02.335Z,6.83
2023-02-12T04:31:28.812Z,6.84
2023-02-12T04:33:55.055Z,6.84
2023-02-12T04:36:21.480Z,6.86
2023-02-12T04:38:47.820Z,6.85
2023-02-12T04:41:14.196Z,6.85
2023-02-12T04:43:40.543Z,6.85
2023-02-12T04:46:07.079Z,6.86
2023-02-12T04:48:33.299Z,6.86
2023-02-12T04:50:59.703Z,6.86
2023-02-12T04:53:26.053Z,6.87
2023-02-12T04:55:52.433Z,6.88
2023-02-12T04:58:18.800Z,6.87
2023-02-12T05:00:45.196Z,6.86
2023-02-12T05:03:11.553Z,6.87
2023-02-12T05:05:37.959Z,6.86
2023-02-12T05:08:04.272Z,6.86
2023-02-12T05:10:30.634Z,6.87
2023-02-12T05:12:56.934Z,6.86
2023-02-12T05:15:23.273Z,6.86
2023-02-12T05:17:49.597Z,6.86
2023-02-12T05:20:15.970Z,6.86
2023-02-12T05:22:42.338Z,6.86
2023-02-12T05:25:08.690Z,6.87
2023-02-12T05:27:35.000Z,6.86
2023-02-12T05:30:01.411Z,6.87
2023-02-12T05:32:27.720Z,6.88
2023-02-12T05:34:54.049Z,6.89
2023-02-12T05:37:20.423Z,6.89
2023-02-12T05:39:46.760Z,6.90
2023-02-12T05:42:13.078Z,6.91
2023-02-12T05:44:39.506Z,6.91
2023-02-12T05:47:05.864Z,6.91
2023-02-12T05:49:32.245Z,6.91
2023-02-12T05:51:58.609Z,6.91
2023-02-12T05:54:24.932Z,6.92
2023-02-12T05:56:51.257Z,6.92
2023-02-12T05:59:17.652Z,6.93
2023-02-12T06:01:43.961Z,6.93
2023-02-12T06:04:10.647Z,6.94
2023-02-12T06:06:36.925Z,6.94
2023-02-12T06:09:03.326Z,6.95
2023-02-12T06:11:29.676Z,6.95
2023-02-12T06:13:56.152Z,6.95
2023-02-12T06:16:22.631Z,6.95
2023-02-12T06:18:48.897Z,6.96
2023-02-12T06:21:15.254Z,6.97
2023-02-12T06:23:43.778Z,6.96
2023-02-12T06:26:10.494Z,6.97
2023-02-12T06:28:36.873Z,6.97
2023-02-12T06:31:03.300Z,6.99
2023-02-12T06:33:29.596Z,6.99
2023-02-12T06:35:56.325Z,7.01
2023-02-12T06:38:22.334Z,7.01
2023-02-12T06:40:48.675Z,7.02
2023-02-12T06:43:15.012Z,7.02
2023-02-12T06:45:41.401Z,7.03
2023-02-12T06:48:07.716Z,7.03
2023-02-12T06:50:34.101Z,7.02
2023-02-12T06:53:00.471Z,7.02
2023-02-12T06:55:29.100Z,7.02
2023-02-12T06:57:55.420Z,7.03
2023-02-12T07:00:21.870Z,7.02
2023-02-12T07:02:48.113Z,7.02
2023-02-12T07:05:14.460Z,7.04
2023-02-12T07:07:40.815Z,7.03
2023-02-12T07:10:07.179Z,7.03
2023-02-12T07:12:33.509Z,7.03
2023-02-12T07:14:59.848Z,7.04
2023-02-12T07:17:26.368Z,7.04
2023-02-12T07:19:52.712Z,7.05
2023-02-12T07:22:19.082Z,7.05
2023-02-12T07:24:45.458Z,7.06
2023-02-12T07:27:11.811Z,7.07
2023-02-12T07:29:38.225Z,7.07
2023-02-12T07:32:04.564Z,7.09
2023-02-12T07:34:30.944Z,7.08
2023-02-12T07:36:57.485Z,7.11
2023-02-12T07:39:23.864Z,7.12
2023-02-12T07:41:50.172Z,7.11
2023-02-12T07:44:16.685Z,7.12
2023-02-12T07:46:42.987Z,7.13
2023-02-12T07:49:09.315Z,7.13
2023-02-12T07:51:35.662Z,7.12
2023-02-12T07:54:02.049Z,7.11
2023-02-12T07:56:28.403Z,7.12
2023-02-12T07:58:54.746Z,7.13
2023-02-12T08:01:21.117Z,7.13
2023-02-12T08:03:47.501Z,7.14
2023-02-12T08:06:13.854Z,7.15
2023-02-12T08:08:40.189Z,7.15
2023-02-12T08:11:09.116Z,7.16
2023-02-12T08:13:35.754Z,7.14
2023-02-12T08:16:02.175Z,7.17
2023-02-12T08:18:28.789Z,7.17
2023-02-12T08:20:55.097Z,7.19
2023-02-12T08:23:21.442Z,7.20
2023-02-12T08:25:47.808Z,7.21
2023-02-12T08:28:15.029Z,7.21
2023-02-12T08:30:41.530Z,7.23
2023-02-12T08:33:07.864Z,7.25
2023-02-12T08:35:34.235Z,7.27
2023-02-12T08:38:00.613Z,7.29
2023-02-12T08:40:26.988Z,7.32
2023-02-12T08:42:53.303Z,7.33
2023-02-12T08:45:19.761Z,7.35
2023-02-12T08:47:46.041Z,7.38
2023-02-12T08:50:12.403Z,7.40
2023-02-12T08:52:38.772Z,7.42
2023-02-12T08:55:05.112Z,7.75
2023-02-12T08:57:31.436Z,8.06
2023-02-12T08:59:58.068Z,8.06
2023-02-12T09:02:24.675Z,7.83
2023-02-12T09:04:51.017Z,7.59
2023-02-12T09:07:17.430Z,7.44
2023-02-12T09:09:43.824Z,7.32
2023-02-12T09:12:10.163Z,7.21
2023-02-12T09:14:36.530Z,7.12
2023-02-12T09:17:03.230Z,7.05
2023-02-12T09:19:29.795Z,6.97
2023-02-12T09:21:56.894Z,7.14
2023-02-12T09:24:22.530Z,7.32
2023-02-12T09:26:49.081Z,7.28
2023-02-12T09:29:15.431Z,7.18
2023-02-12T09:31:43.536Z,7.12
2023-02-12T09:34:09.825Z,7.07
2023-02-12T09:36:36.221Z,7.03
2023-02-12T09:39:02.799Z,6.95
2023-02-12T09:41:29.132Z,6.89
2023-02-12T09:43:55.462Z,6.84
2023-02-12T09:46:21.900Z,6.82
2023-02-12T09:48:48.281Z,6.79
2023-02-12T09:51:14.687Z,6.79
2023-02-12T09:53:41.041Z,6.78
2023-02-12T09:56:07.417Z,6.77
2023-02-12T09:58:33.784Z,6.77
2023-02-12T10:01:00.163Z,6.79
2023-02-12T10:03:26.558Z,6.83
2023-02-12T10:05:52.929Z,6.88
2023-02-12T10:08:22.148Z,6.94
2023-02-12T10:10:45.666Z,7.05
2023-02-12T10:13:11.981Z,7.08
2023-02-12T10:15:38.729Z,7.17
2023-02-12T10:18:05.304Z,7.27
2023-02-12T10:20:31.673Z,7.40
2023-02-12T10:22:58.183Z,7.48
2023-02-12T10:25:24.879Z,7.52
2023-02-12T10:27:51.346Z,7.54
2023-02-12T10:30:17.722Z,7.51
2023-02-12T10:32:44.347Z,7.45
2023-02-12T10:35:10.670Z,7.41
2023-02-12T10:37:39.489Z,7.34
2023-02-12T10:40:05.868Z,7.32
2023-02-12T10:42:32.179Z,7.41
2023-02-12T10:44:58.617Z,7.53
2023-02-12T10:47:24.997Z,7.53
2023-02-12T10:49:51.370Z,7.53
2023-02-12T10:52:17.811Z,7.53
2023-02-12T10:54:44.266Z,7.69
2023-02-12T10:57:10.676Z,8.39
2023-02-12T10:59:37.051Z,8.47
2023-02-12T11:02:05.795Z,8.38
2023-02-12T11:04:32.172Z,8.31
2023-02-12T11:06:58.491Z,8.27
2023-02-12T11:09:27.701Z,8.20
2023-02-12T11:11:54.012Z,8.16
2023-02-12T11:14:20.440Z,8.13
2023-02-12T11:16:49.352Z,8.39
2023-02-12T11:19:15.729Z,8.36
2023-02-12T11:21:42.083Z,8.36
2023-02-12T11:24:08.467Z,8.85
2023-02-12T11:26:34.797Z,9.39
2023-02-12T11:29:01.282Z,9.69
2023-02-12T11:31:27.541Z,9.92
2023-02-12T11:33:53.881Z,10.12
2023-02-12T11:36:20.195Z,10.27
2023-02-12T11:38:46.575Z,10.10
2023-02-12T11:41:12.893Z,9.60
2023-02-12T11:43:39.279Z,9.16
2023-02-12T11:46:06.461Z,8.90
2023-02-12T11:48:32.910Z,8.74
2023-02-12T11:50:59.407Z,8.57
2023-02-12T11:53:25.823Z,8.45
2023-02-12T11:55:52.178Z,8.35
2023-02-12T11:58:18.886Z,8.31
2023-02-12T12:00:45.194Z,8.22
2023-02-12T12:03:11.596Z,8.22
2023-02-12T12:05:38.103Z,8.27
2023-02-12T12:08:04.462Z,8.27
2023-02-12T12:10:30.777Z,8.24
2023-02-12T12:12:57.161Z,8.21
2023-02-12T12:15:23.501Z,8.17
2023-02-12T12:17:50.900Z,8.14
2023-02-12T12:20:18.311Z,8.13
2023-02-12T12:22:45.065Z,8.09
2023-02-12T12:25:11.361Z,8.08
2023-02-12T12:27:38.080Z,8.09
2023-02-12T12:30:04.463Z,8.12
2023-02-12T12:32:30.809Z,8.16
2023-02-12T12:34:57.147Z,8.17
2023-02-12T12:37:23.849Z,8.15
2023-02-12T12:39:50.194Z,8.14
2023-02-12T12:42:16.578Z,8.11
2023-02-12T12:44:43.255Z,8.11
2023-02-12T12:47:09.821Z,8.10
2023-02-12T12:49:36.178Z,8.07
2023-02-12T12:52:02.534Z,8.02
2023-02-12T12:54:28.954Z,7.98
2023-02-12T12:56:55.343Z,7.95
2023-02-12T12:59:21.753Z,7.89
2023-02-12T13:01:48.398Z,7.85
2023-02-12T13:04:14.734Z,7.87
2023-02-12T13:06:41.109Z,7.84
2023-02-12T13:09:07.474Z,7.82
2023-02-12T13:11:36.157Z,7.77
2023-02-12T13:14:02.500Z,7.74
2023-02-12T13:16:29.108Z,7.81
2023-02-12T13:18:56.679Z,8.00
2023-02-12T13:21:25.191Z,8.00
2023-02-12T13:23:51.607Z,7.95
2023-02-12T13:26:17.999Z,7.87
2023-02-12T13:28:44.346Z,7.78
2023-02-12T13:31:32.131Z,7.72
2023-02-12T13:33:37.394Z,7.68
2023-02-12T13:36:03.822Z,7.70
2023-02-12T13:38:30.138Z,7.71
2023-02-12T13:40:56.489Z,7.72
2023-02-12T13:43:22.829Z,7.72
2023-02-12T13:45:49.239Z,7.70
2023-02-12T13:48:15.594Z,7.69
2023-02-12T13:50:41.916Z,7.69
2023-02-12T13:53:08.221Z,7.67
2023-02-12T13:55:34.610Z,7.65
2023-02-12T13:58:00.972Z,7.62
2023-02-12T14:00:27.360Z,7.61
2023-02-12T14:02:53.990Z,7.64
2023-02-12T14:05:20.377Z,7.63
2023-02-12T14:07:46.794Z,7.62
2023-02-12T14:10:13.164Z,7.62
2023-02-12T14:12:41.426Z,7.63
2023-02-12T14:15:05.944Z,7.64
2023-02-12T14:17:32.389Z,7.62
2023-02-12T14:19:58.761Z,7.61
2023-02-12T14:22:25.185Z,7.60
2023-02-12T14:24:51.585Z,7.69
2023-02-12T14:27:17.879Z,8.24
2023-02-12T14:29:44.251Z,8.65
2023-02-12T14:32:10.701Z,8.71
2023-02-12T14:34:37.265Z,8.71
2023-02-12T14:37:03.672Z,8.70
2023-02-12T14:39:30.047Z,8.71
2023-02-12T14:41:56.398Z,8.71
2023-02-12T14:44:22.841Z,8.73
2023-02-12T14:46:49.212Z,8.74
2023-02-12T14:49:15.536Z,8.75
2023-02-12T14:51:41.953Z,8.74
2023-02-12T14:54:08.332Z,8.75
2023-02-12T14:56:34.647Z,8.73
2023-02-12T14:59:01.088Z,8.73
2023-02-12T15:01:27.448Z,8.76
2023-02-12T15:03:53.825Z,8.75
2023-02-12T15:06:20.178Z,8.75
2023-02-12T15:08:46.569Z,9.19
2023-02-12T15:11:12.884Z,9.45
2023-02-12T15:13:39.287Z,9.39
2023-02-12T15:16:05.627Z,9.26
2023-02-12T15:18:31.960Z,9.14
2023-02-12T15:20:58.412Z,9.06
2023-02-12T15:23:24.756Z,9.00
2023-02-12T15:25:51.119Z,8.95
2023-02-12T15:28:17.571Z,8.92
2023-02-12T15:30:43.894Z,8.88
2023-02-12T15:33:10.220Z,8.87
2023-02-12T15:35:36.534Z,8.86
2023-02-12T15:38:02.939Z,8.84
2023-02-12T15:40:29.273Z,8.83
2023-02-12T15:42:55.846Z,8.82
2023-02-12T15:45:22.283Z,8.81
2023-02-12T15:47:48.670Z,8.79
2023-02-12T15:50:15.051Z,8.78
2023-02-12T15:52:41.385Z,8.78
2023-02-12T15:55:07.716Z,8.74
2023-02-12T15:57:34.121Z,8.70
2023-02-12T16:00:00.532Z,8.62
2023-02-12T16:02:26.819Z,8.55
2023-02-12T16:04:53.188Z,8.51
2023-02-12T16:07:19.618Z,8.50
2023-02-12T16:09:45.980Z,8.49
2023-02-12T16:12:12.549Z,8.49
2023-02-12T16:14:38.872Z,8.49
2023-02-12T16:17:05.253Z,8.48
2023-02-12T16:19:31.612Z,8.49
2023-02-12T16:21:58.128Z,8.48
2023-02-12T16:24:24.492Z,8.47
2023-02-12T16:26:50.871Z,8.45
2023-02-12T16:29:17.229Z,8.42
2023-02-12T16:31:43.717Z,8.41
2023-02-12T16:34:09.976Z,8.40
2023-02-12T16:36:36.475Z,8.38
2023-02-12T16:39:02.859Z,8.37
2023-02-12T16:41:29.240Z,8.32
2023-02-12T16:43:55.601Z,8.25
2023-02-12T16:46:21.943Z,8.17
2023-02-12T16:48:49.219Z,8.13
2023-02-12T16:51:14.695Z,8.11
2023-02-12T16:53:41.196Z,8.09
2023-02-12T16:56:07.532Z,8.08
2023-02-12T16:58:33.905Z,8.08
2023-02-12T17:01:00.376Z,8.07
2023-02-12T17:03:26.756Z,8.08
2023-02-12T17:05:53.089Z,8.08
2023-02-12T17:08:19.747Z,8.07
2023-02-12T17:10:46.102Z,8.06
2023-02-12T17:13:12.488Z,8.04
2023-02-12T17:15:38.890Z,8.02
2023-02-12T17:18:05.404Z,8.02
2023-02-12T17:20:31.768Z,8.01
2023-02-12T17:22:58.111Z,8.02
2023-02-12T17:25:24.517Z,8.01
2023-02-12T17:27:50.935Z,7.95
2023-02-12T17:30:17.282Z,7.88
2023-02-12T17:32:43.621Z,7.82
2023-02-12T17:35:09.954Z,7.80
2023-02-12T17:37:36.402Z,7.80
2023-02-12T17:40:02.773Z,7.81
2023-02-12T17:42:29.098Z,7.83
2023-02-12T17:44:55.451Z,7.85
2023-02-12T17:47:21.795Z,7.88
2023-02-12T17:49:48.187Z,7.91
2023-02-12T17:52:14.502Z,7.94
2023-02-12T17:54:40.822Z,7.97
2023-02-12T17:57:07.662Z,7.99
2023-02-12T17:59:33.960Z,8.00
2023-02-12T18:02:00.266Z,8.01
2023-02-12T18:04:26.871Z,8.03
2023-02-12T18:06:53.333Z,8.04
2023-02-12T18:09:19.923Z,8.07
2023-02-12T18:11:46.303Z,8.06
2023-02-12T18:14:12.618Z,8.02
2023-02-12T18:16:39.083Z,7.95
2023-02-12T18:19:05.607Z,7.93
2023-02-12T18:21:31.964Z,7.92
2023-02-12T18:23:58.526Z,7.94
2023-02-12T18:26:24.995Z,7.95
2023-02-12T18:28:51.398Z,8.24
2023-02-12T18:31:18.031Z,8.46
2023-02-12T18:33:44.241Z,8.49
2023-02-12T18:36:10.758Z,8.47
2023-02-12T18:38:37.081Z,8.45
2023-02-12T18:41:03.543Z,8.44
2023-02-12T18:43:29.903Z,8.45
2023-02-12T18:45:56.311Z,8.45
2023-02-12T18:48:22.634Z,8.44
2023-02-12T18:50:49.022Z,8.44
2023-02-12T18:53:15.379Z,8.43
2023-02-12T18:55:41.731Z,8.43
2023-02-12T18:58:10.290Z,8.41
2023-02-12T19:00:36.915Z,8.33
2023-02-12T19:03:03.279Z,8.25
2023-02-12T19:05:29.659Z,8.20
2023-02-12T19:07:56.062Z,8.20
2023-02-12T19:10:22.461Z,8.21
2023-02-12T19:12:48.785Z,8.21
2023-02-12T19:15:15.249Z,8.21
2023-02-12T19:17:41.623Z,8.22
2023-02-12T19:20:07.956Z,8.23
2023-02-12T19:22:34.300Z,8.24
2023-02-12T19:25:00.633Z,8.26
2023-02-12T19:27:27.024Z,8.26
2023-02-12T19:29:53.423Z,8.28
2023-02-12T19:32:19.815Z,8.27
2023-02-12T19:34:46.142Z,8.28
2023-02-12T19:37:12.632Z,8.27
2023-02-12T19:39:39.010Z,8.28
2023-02-12T19:42:05.359Z,8.27
2023-02-12T19:44:31.857Z,8.21
2023-02-12T19:47:00.406Z,8.11
2023-02-12T19:49:26.851Z,8.04
2023-02-12T19:51:53.874Z,8.00
2023-02-12T19:54:20.294Z,7.98
2023-02-12T19:56:49.163Z,7.96
2023-02-12T19:59:15.714Z,7.94
2023-02-12T20:01:42.146Z,7.92
2023-02-12T20:04:08.586Z,7.91
2023-02-12T20:06:34.997Z,7.88
2023-02-12T20:09:01.348Z,7.85
2023-02-12T20:11:27.925Z,7.84
2023-02-12T20:13:54.296Z,7.82
2023-02-12T20:16:20.820Z,7.80
2023-02-12T20:18:47.215Z,7.80
2023-02-12T20:21:13.529Z,7.77
2023-02-12T20:23:40.178Z,7.74
2023-02-12T20:26:06.523Z,7.72
2023-02-12T20:28:32.940Z,7.72
2023-02-12T20:30:59.776Z,7.64
2023-02-12T20:33:25.677Z,7.56
2023-02-12T20:35:51.989Z,7.47
2023-02-12T20:38:18.397Z,7.45
2023-02-12T20:40:44.860Z,7.44
2023-02-12T20:43:11.207Z,7.44
2023-02-12T20:45:37.697Z,7.41
2023-02-12T20:48:04.096Z,7.40
2023-02-12T20:50:30.462Z,7.40
2023-02-12T20:52:56.825Z,7.38
2023-02-12T20:55:23.222Z,7.39
2023-02-12T20:57:49.634Z,7.39
2023-02-12T21:00:15.969Z,7.39
2023-02-12T21:02:42.372Z,7.39
2023-02-12T21:05:08.668Z,7.38
2023-02-12T21:07:35.132Z,7.38
2023-02-12T21:10:01.455Z,7.39
2023-02-12T21:12:28.162Z,7.39
2023-02-12T21:14:54.477Z,7.37
2023-02-12T21:17:20.852Z,7.30
2023-02-12T21:19:47.210Z,7.21
2023-02-12T21:22:13.636Z,7.13
2023-02-12T21:24:39.957Z,7.12
2023-02-12T21:27:06.294Z,7.11
2023-02-12T21:29:32.711Z,7.10
2023-02-12T21:31:59.122Z,7.09
2023-02-12T21:34:25.365Z,7.08
2023-02-12T21:36:51.758Z,7.09
2023-02-12T21:39:18.067Z,7.10
2023-02-12T21:41:44.421Z,7.10
2023-02-12T21:44:10.910Z,7.09
2023-02-12T21:46:37.192Z,7.10
2023-02-12T21:49:03.521Z,7.09
2023-02-12T21:51:29.891Z,7.08
2023-02-12T21:53:56.209Z,7.09
2023-02-12T21:56:22.553Z,7.08
2023-02-12T21:58:48.932Z,7.09
2023-02-12T22:01:15.321Z,7.06
2023-02-12T22:03:41.732Z,7.00
2023-02-12T22:06:08.061Z,6.91
2023-02-12T22:08:34.461Z,6.84
2023-02-12T22:11:00.854Z,6.84
2023-02-12T22:13:27.179Z,6.83
2023-02-12T22:15:53.523Z,6.81
2023-02-12T22:18:19.907Z,6.80
2023-02-12T22:20:46.273Z,6.79
2023-02-12T22:23:12.585Z,6.80
2023-02-12T22:25:38.977Z,6.81
2023-02-12T22:28:05.491Z,6.80
2023-02-12T22:30:31.774Z,6.80
2023-02-12T22:32:58.183Z,6.82
2023-02-12T22:35:26.704Z,6.82
2023-02-12T22:37:50.922Z,6.81
2023-02-12T22:40:17.260Z,6.79
2023-02-12T22:42:43.739Z,6.77
2023-02-12T22:45:10.122Z,6.78
2023-02-12T22:47:36.468Z,6.77
2023-02-12T22:50:02.813Z,6.69
2023-02-12T22:52:29.164Z,6.61
2023-02-12T22:54:55.543Z,6.61
2023-02-12T22:57:21.924Z,6.59
2023-02-12T22:59:48.351Z,6.57
2023-02-12T23:02:14.663Z,6.54
2023-02-12T23:04:41.082Z,6.53
2023-02-12T23:07:07.397Z,6.53
2023-02-12T23:09:33.733Z,6.54
2023-02-12T23:12:00.112Z,6.55
2023-02-12T23:14:26.448Z,6.57
2023-02-12T23:16:52.931Z,6.62
2023-02-12T23:19:19.266Z,6.63
2023-02-12T23:21:45.641Z,6.61
2023-02-12T23:24:12.022Z,6.61
2023-02-12T23:26:38.421Z,6.60
2023-02-12T23:29:04.784Z,6.60
2023-02-12T23:31:31.206Z,6.61
2023-02-12T23:33:57.545Z,6.60
2023-02-12T23:36:23.894Z,6.52
2023-02-12T23:38:50.311Z,6.42
2023-02-12T23:41:16.716Z,6.40
2023-02-12T23:43:43.043Z,6.39
2023-02-12T23:46:09.781Z,6.38
2023-02-12T23:48:36.014Z,6.37
2023-02-12T23:51:02.342Z,6.37
2023-02-12T23:53:28.752Z,6.39
2023-02-12T23:55:55.109Z,6.40
2023-02-12T23:58:21.472Z,6.39
